sensor_id;sensor_type;location;lat;lon;timestamp;pressure;altitude;pressure_sealevel;temperature;humidity
64713;BME280;51140;45.340;5.980;2022-10-17T00:01:27;98457.34;;;21.59;100.00
64713;BME280;51140;45.340;5.980;2022-10-17T00:03:52;98453.88;;;21.59;100.00
64713;BME280;51140;45.340;5.980;2022-10-17T00:06:18;98457.50;;;21.58;100.00
64713;BME280;51140;45.340;5.980;2022-10-17T00:08:43;98454.84;;;21.58;100.00
64713;BME280;51140;45.340;5.980;2022-10-17T00:11:18;98476.91;;;21.58;100.00
64713;BME280;51140;45.340;5.980;2022-10-17T00:13:45;98472.56;;;21.57;100.00
64713;BME280;51140;45.340;5.980;2022-10-17T00:16:11;98466.44;;;21.57;100.00
64713;BME280;51140;45.340;5.980;2022-10-17T00:18:37;98474.38;;;21.57;100.00
64713;BME280;51140;45.340;5.980;2022-10-17T00:21:03;98462.09;;;21.56;100.00
64713;BME280;51140;45.340;5.980;2022-10-17T00:23:28;98462.09;;;21.56;100.00
64713;BME280;51140;45.340;5.980;2022-10-17T00:26:02;98463.94;;;21.55;100.00
64713;BME280;51140;45.340;5.980;2022-10-17T00:28:28;98475.38;;;21.56;100.00
64713;BME280;51140;45.340;5.980;2022-10-17T00:30:57;98475.50;;;21.54;100.00
64713;BME280;51140;45.340;5.980;2022-10-17T00:33:23;98492.25;;;21.55;100.00
64713;BME280;51140;45.340;5.980;2022-10-17T00:35:49;98482.63;;;21.54;100.00
64713;BME280;51140;45.340;5.980;2022-10-17T00:38:14;98500.19;;;21.55;100.00
64713;BME280;51140;45.340;5.980;2022-10-17T00:40:39;98479.00;;;21.55;100.00
64713;BME280;51140;45.340;5.980;2022-10-17T00:43:16;98471.88;;;21.55;100.00
64713;BME280;51140;45.340;5.980;2022-10-17T00:45:42;98480.94;;;21.53;100.00
64713;BME280;51140;45.340;5.980;2022-10-17T00:48:09;98488.75;;;21.54;100.00
64713;BME280;51140;45.340;5.980;2022-10-17T00:50:37;98489.72;;;21.53;100.00
64713;BME280;51140;45.340;5.980;2022-10-17T00:53:04;98501.31;;;21.52;100.00
64713;BME280;51140;45.340;5.980;2022-10-17T00:55:32;98492.53;;;21.52;100.00
64713;BME280;51140;45.340;5.980;2022-10-17T00:58:01;98513.72;;;21.52;100.00
64713;BME280;51140;45.340;5.980;2022-10-17T01:00:27;98505.78;;;21.52;100.00
64713;BME280;51140;45.340;5.980;2022-10-17T01:02:53;98505.91;;;21.50;100.00
64713;BME280;51140;45.340;5.980;2022-10-17T01:05:18;98513.03;;;21.50;100.00
64713;BME280;51140;45.340;5.980;2022-10-17T01:07:45;98512.06;;;21.51;100.00
64713;BME280;51140;45.340;5.980;2022-10-17T01:10:12;98521.00;;;21.50;100.00
64713;BME280;51140;45.340;5.980;2022-10-17T01:15:51;98516.66;;;21.49;100.00
64713;BME280;51140;45.340;5.980;2022-10-17T01:18:39;98515.00;;;21.48;100.00
64713;BME280;51140;45.340;5.980;2022-10-17T01:30:02;98514.28;;;21.46;100.00
64713;BME280;51140;45.340;5.980;2022-10-17T01:33:36;98506.34;;;21.46;100.00
64713;BME280;51140;45.340;5.980;2022-10-17T01:36:04;98523.22;;;21.45;100.00
64713;BME280;51140;45.340;5.980;2022-10-17T01:38:42;98517.09;;;21.44;100.00
64713;BME280;51140;45.340;5.980;2022-10-17T01:41:35;98529.50;;;21.44;100.00
64713;BME280;51140;45.340;5.980;2022-10-17T01:44:14;98503.97;;;21.43;100.00
64713;BME280;51140;45.340;5.980;2022-10-17T01:46:45;98514.56;;;21.43;100.00
64713;BME280;51140;45.340;5.980;2022-10-17T01:49:15;98521.53;;;21.44;100.00
64713;BME280;51140;45.340;5.980;2022-10-17T01:51:57;98533.13;;;21.43;100.00
64713;BME280;51140;45.340;5.980;2022-10-17T01:54:31;98511.91;;;21.43;100.00
64713;BME280;51140;45.340;5.980;2022-10-17T01:57:00;98513.72;;;21.42;100.00
64713;BME280;51140;45.340;5.980;2022-10-17T01:59:34;98510.25;;;21.42;100.00
64713;BME280;51140;45.340;5.980;2022-10-17T02:02:02;98501.47;;;21.41;100.00
64713;BME280;51140;45.340;5.980;2022-10-17T02:04:30;98503.28;;;21.41;100.00
64713;BME280;51140;45.340;5.980;2022-10-17T02:06:55;98517.50;;;21.40;100.00
64713;BME280;51140;45.340;5.980;2022-10-17T02:09:25;98517.50;;;21.40;100.00
64713;BME280;51140;45.340;5.980;2022-10-17T02:17:43;98498.25;;;21.38;100.00
64713;BME280;51140;45.340;5.980;2022-10-17T02:20:23;98509.69;;;21.38;100.00
64713;BME280;51140;45.340;5.980;2022-10-17T02:23:04;98512.47;;;21.37;100.00
64713;BME280;51140;45.340;5.980;2022-10-17T02:28:30;98490.44;;;21.36;100.00
64713;BME280;51140;45.340;5.980;2022-10-17T02:31:02;98502.84;;;21.36;100.00
64713;BME280;51140;45.340;5.980;2022-10-17T02:33:34;98487.78;;;21.36;100.00
64713;BME280;51140;45.340;5.980;2022-10-17T02:36:06;98500.19;;;21.36;100.00
64713;BME280;51140;45.340;5.980;2022-10-17T02:38:33;98493.22;;;21.35;100.00
64713;BME280;51140;45.340;5.980;2022-10-17T02:40:59;98489.88;;;21.33;100.00
64713;BME280;51140;45.340;5.980;2022-10-17T02:43:25;98478.44;;;21.32;100.00
64713;BME280;51140;45.340;5.980;2022-10-17T02:45:52;98517.22;;;21.33;100.00
64713;BME280;51140;45.340;5.980;2022-10-17T02:51:05;98489.88;;;21.33;100.00
64713;BME280;51140;45.340;5.980;2022-10-17T02:53:39;98481.94;;;21.33;100.00
64713;BME280;51140;45.340;5.980;2022-10-17T02:56:15;98496.16;;;21.32;100.00
64713;BME280;51140;45.340;5.980;2022-10-17T02:58:42;98501.47;;;21.32;100.00
64713;BME280;51140;45.340;5.980;2022-10-17T03:01:12;98492.66;;;21.31;100.00
64713;BME280;51140;45.340;5.980;2022-10-17T03:03:38;98502.44;;;21.31;100.00
64713;BME280;51140;45.340;5.980;2022-10-17T03:06:03;98497.97;;;21.31;100.00
64713;BME280;51140;45.340;5.980;2022-10-17T03:08:28;98507.88;;;21.29;100.00
64713;BME280;51140;45.340;5.980;2022-10-17T03:10:54;98514.97;;;21.29;100.00
64713;BME280;51140;45.340;5.980;2022-10-17T03:13:20;98523.91;;;21.27;100.00
64713;BME280;51140;45.340;5.980;2022-10-17T03:15:45;98514.97;;;21.29;100.00
64713;BME280;51140;45.340;5.980;2022-10-17T03:18:11;98514.28;;;21.26;100.00
64713;BME280;51140;45.340;5.980;2022-10-17T03:20:36;98524.75;;;21.28;100.00
64713;BME280;51140;45.340;5.980;2022-10-17T03:23:01;98522.25;;;21.26;100.00
64713;BME280;51140;45.340;5.980;2022-10-17T03:25:27;98523.22;;;21.25;100.00
64713;BME280;51140;45.340;5.980;2022-10-17T03:27:52;98550.69;;;21.24;100.00
64713;BME280;51140;45.340;5.980;2022-10-17T03:30:18;98530.31;;;21.25;100.00
64713;BME280;51140;45.340;5.980;2022-10-17T03:32:44;98537.44;;;21.24;100.00
64713;BME280;51140;45.340;5.980;2022-10-17T03:35:09;98536.59;;;21.24;100.00
64713;BME280;51140;45.340;5.980;2022-10-17T03:37:34;98521.69;;;21.23;100.00
64713;BME280;51140;45.340;5.980;2022-10-17T03:40:00;98518.16;;;21.22;100.00
64713;BME280;51140;45.340;5.980;2022-10-17T03:42:25;98517.31;;;21.22;100.00
64713;BME280;51140;45.340;5.980;2022-10-17T03:44:50;98518.16;;;21.22;100.00
64713;BME280;51140;45.340;5.980;2022-10-17T03:47:16;98527.06;;;21.21;100.00
64713;BME280;51140;45.340;5.980;2022-10-17T03:49:41;98525.16;;;21.23;100.00
64713;BME280;51140;45.340;5.980;2022-10-17T03:52:11;98540.31;;;21.21;100.00
64713;BME280;51140;45.340;5.980;2022-10-17T03:54:36;98532.47;;;21.20;100.00
64713;BME280;51140;45.340;5.980;2022-10-17T03:57:02;98530.66;;;21.20;100.00
64713;BME280;51140;45.340;5.980;2022-10-17T03:59:27;98563.31;;;21.21;100.00
64713;BME280;51140;45.340;5.980;2022-10-17T04:01:53;98534.28;;;21.19;100.00
64713;BME280;51140;45.340;5.980;2022-10-17T04:04:18;98520.22;;;21.19;100.00
64713;BME280;51140;45.340;5.980;2022-10-17T04:06:43;98537.78;;;21.20;100.00
64713;BME280;51140;45.340;5.980;2022-10-17T04:09:09;98535.28;;;21.18;100.00
64713;BME280;51140;45.340;5.980;2022-10-17T04:11:35;98527.31;;;21.18;100.00
64713;BME280;51140;45.340;5.980;2022-10-17T04:14:00;98532.63;;;21.18;100.00
64713;BME280;51140;45.340;5.980;2022-10-17T04:16:26;98543.34;;;21.17;100.00
64713;BME280;51140;45.340;5.980;2022-10-17T04:18:53;98539.03;;;21.16;100.00
64713;BME280;51140;45.340;5.980;2022-10-17T04:21:19;98531.09;;;21.16;100.00
64713;BME280;51140;45.340;5.980;2022-10-17T04:23:45;98542.53;;;21.16;100.00
64713;BME280;51140;45.340;5.980;2022-10-17T04:26:10;98558.56;;;21.15;100.00
64713;BME280;51140;45.340;5.980;2022-10-17T04:28:36;98550.59;;;21.15;100.00
64713;BME280;51140;45.340;5.980;2022-10-17T04:31:06;98556.75;;;21.15;100.00
64713;BME280;51140;45.340;5.980;2022-10-17T04:33:32;98565.66;;;21.14;100.00
64713;BME280;51140;45.340;5.980;2022-10-17T04:36:00;98562.31;;;21.12;100.00
64713;BME280;51140;45.340;5.980;2022-10-17T04:38:26;98571.22;;;21.11;100.00
64713;BME280;51140;45.340;5.980;2022-10-17T04:40:52;98561.47;;;21.12;100.00
64713;BME280;51140;45.340;5.980;2022-10-17T04:43:18;98561.47;;;21.12;100.00
64713;BME280;51140;45.340;5.980;2022-10-17T04:45:43;98559.66;;;21.12;100.00
64713;BME280;51140;45.340;5.980;2022-10-17T04:48:09;98572.91;;;21.12;100.00
64713;BME280;51140;45.340;5.980;2022-10-17T04:50:34;98574.84;;;21.10;100.00
64713;BME280;51140;45.340;5.980;2022-10-17T04:52:59;98576.66;;;21.10;100.00
64713;BME280;51140;45.340;5.980;2022-10-17T04:55:25;98570.53;;;21.09;100.00
64713;BME280;51140;45.340;5.980;2022-10-17T04:57:50;98599.97;;;21.16;100.00
64713;BME280;51140;45.340;5.980;2022-10-17T05:00:16;98593.91;;;21.25;100.00
64713;BME280;51140;45.340;5.980;2022-10-17T05:02:41;98608.34;;;21.21;100.00
64713;BME280;51140;45.340;5.980;2022-10-17T05:05:07;98587.97;;;21.12;100.00
64713;BME280;51140;45.340;5.980;2022-10-17T05:07:32;98604.50;;;21.25;100.00
64713;BME280;51140;45.340;5.980;2022-10-17T05:09:58;98600.06;;;21.25;100.00
64713;BME280;51140;45.340;5.980;2022-10-17T05:12:24;98624.06;;;21.34;100.00
64713;BME280;51140;45.340;5.980;2022-10-17T05:14:49;98632.72;;;21.36;100.00
64713;BME280;51140;45.340;5.980;2022-10-17T05:17:15;98592.25;;;21.34;100.00
64713;BME280;51140;45.340;5.980;2022-10-17T05:19:40;98618.88;;;21.32;100.00
64713;BME280;51140;45.340;5.980;2022-10-17T05:22:05;98603.41;;;21.27;100.00
64713;BME280;51140;45.340;5.980;2022-10-17T05:24:31;98591.81;;;21.29;100.00
64713;BME280;51140;45.340;5.980;2022-10-17T05:26:56;98584.16;;;21.25;100.00
64713;BME280;51140;45.340;5.980;2022-10-17T05:29:22;98601.03;;;21.24;100.00
64713;BME280;51140;45.340;5.980;2022-10-17T05:31:47;98614.00;;;21.27;100.00
64713;BME280;51140;45.340;5.980;2022-10-17T05:34:12;98603.53;;;21.26;100.00
64713;BME280;51140;45.340;5.980;2022-10-17T05:36:38;98615.69;;;21.29;100.00
64713;BME280;51140;45.340;5.980;2022-10-17T05:39:03;98584.84;;;21.27;100.00
64713;BME280;51140;45.340;5.980;2022-10-17T05:41:28;98607.03;;;21.26;100.00
64713;BME280;51140;45.340;5.980;2022-10-17T05:43:54;98619.03;;;21.31;100.00
64713;BME280;51140;45.340;5.980;2022-10-17T05:46:19;98622.38;;;21.33;100.00
64713;BME280;51140;45.340;5.980;2022-10-17T05:48:44;98614.00;;;21.27;100.00
64713;BME280;51140;45.340;5.980;2022-10-17T05:51:10;98607.03;;;21.26;100.00
64713;BME280;51140;45.340;5.980;2022-10-17T05:53:37;98629.06;;;21.27;100.00
64713;BME280;51140;45.340;5.980;2022-10-17T05:56:05;98638.81;;;21.26;100.00
64713;BME280;51140;45.340;5.980;2022-10-17T05:58:32;98602.00;;;21.23;100.00
64713;BME280;51140;45.340;5.980;2022-10-17T06:01:04;98625.94;;;21.22;100.00
64713;BME280;51140;45.340;5.980;2022-10-17T06:03:30;98619.81;;;21.21;100.00
64713;BME280;51140;45.340;5.980;2022-10-17T06:05:56;98636.78;;;21.19;100.00
64713;BME280;51140;45.340;5.980;2022-10-17T06:08:26;98612.94;;;21.19;100.00
64713;BME280;51140;45.340;5.980;2022-10-17T06:10:52;98638.59;;;21.18;100.00
64713;BME280;51140;45.340;5.980;2022-10-17T06:13:17;98653.78;;;21.16;100.00
64713;BME280;51140;45.340;5.980;2022-10-17T06:15:43;98653.22;;;21.13;100.00
64713;BME280;51140;45.340;5.980;2022-10-17T06:18:10;98615.56;;;21.09;100.00
64713;BME280;51140;45.340;5.980;2022-10-17T06:20:35;98578.03;;;21.04;100.00
64713;BME280;51140;45.340;5.980;2022-10-17T06:23:01;98602.84;;;21.03;100.00
64713;BME280;51140;45.340;5.980;2022-10-17T06:25:30;98586.53;;;20.98;100.00
64713;BME280;51140;45.340;5.980;2022-10-17T06:27:55;98556.69;;;20.96;100.00
64713;BME280;51140;45.340;5.980;2022-10-17T06:30:21;98583.72;;;20.90;100.00
64713;BME280;51140;45.340;5.980;2022-10-17T06:32:47;98596.81;;;20.91;100.00
64713;BME280;51140;45.340;5.980;2022-10-17T06:35:12;98621.81;;;20.99;100.00
64713;BME280;51140;45.340;5.980;2022-10-17T06:37:38;98611.63;;;21.04;100.00
64713;BME280;51140;45.340;5.980;2022-10-17T06:40:04;98630.88;;;21.06;100.00
64713;BME280;51140;45.340;5.980;2022-10-17T06:42:30;98621.41;;;21.03;100.00
64713;BME280;51140;45.340;5.980;2022-10-17T06:44:55;98624.03;;;21.03;100.00
64713;BME280;51140;45.340;5.980;2022-10-17T06:47:21;98608.16;;;21.03;100.00
64713;BME280;51140;45.340;5.980;2022-10-17T06:49:46;98629.22;;;21.05;100.00
64713;BME280;51140;45.340;5.980;2022-10-17T06:52:11;98621.41;;;21.03;100.00
64713;BME280;51140;45.340;5.980;2022-10-17T06:54:37;98650.41;;;21.05;100.00
64713;BME280;51140;45.340;5.980;2022-10-17T06:57:02;98667.97;;;21.06;100.00
64713;BME280;51140;45.340;5.980;2022-10-17T06:59:27;98676.88;;;21.05;100.00
64713;BME280;51140;45.340;5.980;2022-10-17T07:01:53;98669.78;;;21.05;100.00
64713;BME280;51140;45.340;5.980;2022-10-17T07:04:18;98690.00;;;21.06;100.00
64713;BME280;51140;45.340;5.980;2022-10-17T07:06:44;98690.97;;;21.05;100.00
64713;BME280;51140;45.340;5.980;2022-10-17T07:09:09;98690.25;;;21.03;100.00
64713;BME280;51140;45.340;5.980;2022-10-17T07:11:34;98699.75;;;21.06;100.00
64713;BME280;51140;45.340;5.980;2022-10-17T07:14:00;98713.25;;;21.03;100.00
64713;BME280;51140;45.340;5.980;2022-10-17T07:16:26;98692.91;;;21.03;100.00
64713;BME280;51140;45.340;5.980;2022-10-17T07:18:52;98706.28;;;21.02;100.00
64713;BME280;51140;45.340;5.980;2022-10-17T07:21:18;98704.63;;;21.01;100.00
64713;BME280;51140;45.340;5.980;2022-10-17T07:23:44;98722.31;;;21.00;100.00
64713;BME280;51140;45.340;5.980;2022-10-17T07:26:11;98718.00;;;20.99;100.00
64713;BME280;51140;45.340;5.980;2022-10-17T07:28:39;98733.88;;;20.99;100.00
64713;BME280;51140;45.340;5.980;2022-10-17T07:31:07;98738.47;;;20.97;100.00
64713;BME280;51140;45.340;5.980;2022-10-17T07:33:33;98746.41;;;20.97;100.00
64713;BME280;51140;45.340;5.980;2022-10-17T07:35:59;98757.13;;;20.95;100.00
64713;BME280;51140;45.340;5.980;2022-10-17T07:38:26;98758.81;;;20.96;100.00
64713;BME280;51140;45.340;5.980;2022-10-17T07:40:58;98758.09;;;20.94;100.00
64713;BME280;51140;45.340;5.980;2022-10-17T07:43:25;98718.38;;;20.94;100.00
64713;BME280;51140;45.340;5.980;2022-10-17T07:45:51;98735.25;;;20.93;100.00
64713;BME280;51140;45.340;5.980;2022-10-17T07:48:17;98751.97;;;20.94;100.00
64713;BME280;51140;45.340;5.980;2022-10-17T07:50:43;98759.09;;;20.93;100.00
64713;BME280;51140;45.340;5.980;2022-10-17T07:53:08;98764.50;;;20.92;100.00
64713;BME280;51140;45.340;5.980;2022-10-17T07:55:36;98762.81;;;20.91;100.00
64713;BME280;51140;45.340;5.980;2022-10-17T07:58:01;98774.38;;;20.90;100.00
64713;BME280;51140;45.340;5.980;2022-10-17T08:00:26;98770.06;;;20.89;100.00
64713;BME280;51140;45.340;5.980;2022-10-17T08:02:52;98757.66;;;20.89;100.00
64713;BME280;51140;45.340;5.980;2022-10-17T08:05:17;98754.03;;;20.90;100.00
64713;BME280;51140;45.340;5.980;2022-10-17T08:07:42;98758.50;;;20.90;100.00
64713;BME280;51140;45.340;5.980;2022-10-17T08:10:11;98764.75;;;20.89;100.00
64713;BME280;51140;45.340;5.980;2022-10-17T08:12:36;98769.09;;;20.90;100.00
64713;BME280;51140;45.340;5.980;2022-10-17T08:15:03;98778.97;;;20.88;100.00
64713;BME280;51140;45.340;5.980;2022-10-17T08:17:29;98779.09;;;20.86;100.00
64713;BME280;51140;45.340;5.980;2022-10-17T08:19:54;98778.13;;;20.87;100.00
64713;BME280;51140;45.340;5.980;2022-10-17T08:22:19;98789.00;;;20.84;100.00
64713;BME280;51140;45.340;5.980;2022-10-17T08:24:45;98778.28;;;20.86;100.00
64713;BME280;51140;45.340;5.980;2022-10-17T08:27:11;98776.59;;;20.85;100.00
64713;BME280;51140;45.340;5.980;2022-10-17T08:29:38;98788.28;;;20.82;100.00
64713;BME280;51140;45.340;5.980;2022-10-17T08:32:04;98762.63;;;20.83;100.00
64713;BME280;51140;45.340;5.980;2022-10-17T08:34:30;98775.88;;;20.83;100.00
64713;BME280;51140;45.340;5.980;2022-10-17T08:36:56;98774.06;;;20.83;100.00
64713;BME280;51140;45.340;5.980;2022-10-17T08:39:21;98776.72;;;20.83;100.00
64713;BME280;51140;45.340;5.980;2022-10-17T08:42:13;98790.78;;;20.84;100.00
64713;BME280;51140;45.340;5.980;2022-10-17T08:47:39;98783.06;;;20.81;100.00
64713;BME280;51140;45.340;5.980;2022-10-17T08:50:23;98773.47;;;20.80;100.00
64713;BME280;51140;45.340;5.980;2022-10-17T08:52:53;98762.88;;;20.80;100.00
64713;BME280;51140;45.340;5.980;2022-10-17T08:55:32;98773.34;;;20.81;100.00
64713;BME280;51140;45.340;5.980;2022-10-17T08:57:59;98760.13;;;20.81;100.00
64713;BME280;51140;45.340;5.980;2022-10-17T09:00:27;98770.81;;;20.80;100.00
64713;BME280;51140;45.340;5.980;2022-10-17T09:03:19;98781.53;;;20.78;100.00
64713;BME280;51140;45.340;5.980;2022-10-17T09:06:17;98770.09;;;20.78;100.00
64713;BME280;51140;45.340;5.980;2022-10-17T09:20:00;98748.06;;;20.77;100.00
64713;BME280;51140;45.340;5.980;2022-10-17T09:22:34;98748.91;;;20.78;100.00
64713;BME280;51140;45.340;5.980;2022-10-17T09:25:04;98745.44;;;20.77;100.00
64713;BME280;51140;45.340;5.980;2022-10-17T09:27:52;98745.56;;;20.76;100.00
64713;BME280;51140;45.340;5.980;2022-10-17T09:33:22;98734.97;;;20.76;100.00
64713;BME280;51140;45.340;5.980;2022-10-17T09:35:49;98733.28;;;20.75;100.00
64713;BME280;51140;45.340;5.980;2022-10-17T09:38:17;98733.28;;;20.75;100.00
64713;BME280;51140;45.340;5.980;2022-10-17T09:40:45;98730.50;;;20.76;100.00
64713;BME280;51140;45.340;5.980;2022-10-17T09:43:13;98723.41;;;20.77;100.00
64713;BME280;51140;45.340;5.980;2022-10-17T09:46:07;98720.75;;;20.77;100.00
64713;BME280;51140;45.340;5.980;2022-10-17T09:48:52;98732.19;;;20.77;100.00
64713;BME280;51140;45.340;5.980;2022-10-17T09:51:20;98719.09;;;20.76;100.00
64713;BME280;51140;45.340;5.980;2022-10-17T09:53:50;98729.66;;;20.76;100.00
64713;BME280;51140;45.340;5.980;2022-10-17T09:56:18;98725.34;;;20.75;100.00
64713;BME280;51140;45.340;5.980;2022-10-17T09:58:52;98727.03;;;20.76;100.00
64713;BME280;51140;45.340;5.980;2022-10-17T10:03:47;98745.16;;;20.59;100.00
64713;BME280;51140;45.340;5.980;2022-10-17T10:06:19;98758.84;;;20.64;100.00
64713;BME280;51140;45.340;5.980;2022-10-17T10:08:56;98757.97;;;20.75;100.00
64713;BME280;51140;45.340;5.980;2022-10-17T10:11:47;98746.41;;;20.76;100.00
64713;BME280;51140;45.340;5.980;2022-10-17T10:14:18;98743.13;;;20.84;100.00
64713;BME280;51140;45.340;5.980;2022-10-17T10:16:46;98743.13;;;20.84;100.00
64713;BME280;51140;45.340;5.980;2022-10-17T10:19:34;98756.94;;;20.87;100.00
64713;BME280;51140;45.340;5.980;2022-10-17T10:22:02;98756.31;;;20.95;100.00
64713;BME280;51140;45.340;5.980;2022-10-17T10:24:28;98764.69;;;21.00;100.00
64713;BME280;51140;45.340;5.980;2022-10-17T10:26:57;98761.22;;;21.00;100.00
64713;BME280;51140;45.340;5.980;2022-10-17T10:29:32;98773.47;;;21.01;100.00
64713;BME280;51140;45.340;5.980;2022-10-17T10:32:25;98740.00;;;21.00;100.00
64713;BME280;51140;45.340;5.980;2022-10-17T10:34:57;98756.16;;;20.96;100.00
64713;BME280;51140;45.340;5.980;2022-10-17T10:37:26;98753.38;;;20.98;100.00
64713;BME280;51140;45.340;5.980;2022-10-17T10:40:02;98753.91;;;20.92;100.00
64713;BME280;51140;45.340;5.980;2022-10-17T10:42:31;98755.84;;;20.90;100.00
64713;BME280;51140;45.340;5.980;2022-10-17T10:45:18;98762.97;;;20.89;100.00
64713;BME280;51140;45.340;5.980;2022-10-17T10:47:55;98760.19;;;20.91;100.00
64713;BME280;51140;45.340;5.980;2022-10-17T10:53:11;98750.56;;;20.90;100.00
64713;BME280;51140;45.340;5.980;2022-10-17T10:56:27;98745.00;;;20.93;100.00
64713;BME280;51140;45.340;5.980;2022-10-17T10:58:49;98756.75;;;21.00;100.00
64713;BME280;51140;45.340;5.980;2022-10-17T11:01:31;98756.88;;;20.99;100.00
64713;BME280;51140;45.340;5.980;2022-10-17T11:06:42;98766.38;;;21.01;100.00
64713;BME280;51140;45.340;5.980;2022-10-17T11:11:40;98765.13;;;21.05;100.00
64713;BME280;51140;45.340;5.980;2022-10-17T11:14:15;98759.25;;;21.02;100.00
64713;BME280;51140;45.340;5.980;2022-10-17T11:16:46;98756.63;;;21.02;100.00
64713;BME280;51140;45.340;5.980;2022-10-17T11:22:08;98754.53;;;21.05;100.00
64713;BME280;51140;45.340;5.980;2022-10-17T11:24:52;98740.34;;;21.06;100.00
64713;BME280;51140;45.340;5.980;2022-10-17T11:27:25;98741.88;;;21.09;100.00
64713;BME280;51140;45.340;5.980;2022-10-17T11:29:51;98735.75;;;21.08;100.00
64713;BME280;51140;45.340;5.980;2022-10-17T11:32:24;98739.94;;;21.11;100.00
64713;BME280;51140;45.340;5.980;2022-10-17T11:34:54;98730.19;;;21.11;100.00
64713;BME280;51140;45.340;5.980;2022-10-17T11:37:43;98735.91;;;21.16;100.00
64713;BME280;51140;45.340;5.980;2022-10-17T11:40:27;98718.59;;;21.12;100.00
64713;BME280;51140;45.340;5.980;2022-10-17T11:43:14;98725.59;;;21.13;100.00
64713;BME280;51140;45.340;5.980;2022-10-17T11:45:45;98712.47;;;21.12;100.00
64713;BME280;51140;45.340;5.980;2022-10-17T11:48:18;98715.97;;;21.12;100.00
64713;BME280;51140;45.340;5.980;2022-10-17T11:50:52;98713.75;;;21.17;100.00
64713;BME280;51140;45.340;5.980;2022-10-17T11:53:22;98694.00;;;21.21;100.00
64713;BME280;51140;45.340;5.980;2022-10-17T11:55:50;98692.78;;;21.25;100.00
64713;BME280;51140;45.340;5.980;2022-10-17T12:01:03;98687.66;;;21.34;100.00
64713;BME280;51140;45.340;5.980;2022-10-17T12:03:38;98666.31;;;21.35;100.00
64713;BME280;51140;45.340;5.980;2022-10-17T12:06:28;98655.59;;;21.37;100.00
64713;BME280;51140;45.340;5.980;2022-10-17T12:11:51;98646.13;;;21.44;100.00
64713;BME280;51140;45.340;5.980;2022-10-17T12:14:43;98628.00;;;21.49;100.00
64713;BME280;51140;45.340;5.980;2022-10-17T12:19:46;98584.47;;;21.51;100.00
64713;BME280;51140;45.340;5.980;2022-10-17T12:30:04;98537.19;;;21.66;100.00
64713;BME280;51140;45.340;5.980;2022-10-17T12:32:30;98525.91;;;21.64;100.00
64713;BME280;51140;45.340;5.980;2022-10-17T12:34:56;98526.72;;;21.65;100.00
64713;BME280;51140;45.340;5.980;2022-10-17T12:45:55;98501.63;;;21.69;100.00
64713;BME280;51140;45.340;5.980;2022-10-17T12:51:05;98489.47;;;21.76;100.00
64713;BME280;51140;45.340;5.980;2022-10-17T12:56:12;98478.72;;;21.77;100.00
64713;BME280;51140;45.340;5.980;2022-10-17T12:58:45;98475.91;;;21.88;100.00
64713;BME280;51140;45.340;5.980;2022-10-17T13:01:22;98479.94;;;21.93;100.00
64713;BME280;51140;45.340;5.980;2022-10-17T13:03:52;98481.06;;;21.90;100.00
64713;BME280;51140;45.340;5.980;2022-10-17T13:06:27;98493.47;;;21.89;100.00
64713;BME280;51140;45.340;5.980;2022-10-17T13:08:58;98476.72;;;21.89;100.00
64713;BME280;51140;45.340;5.980;2022-10-17T13:11:26;98474.91;;;21.89;100.00
64713;BME280;51140;45.340;5.980;2022-10-17T13:13:56;98471.28;;;21.90;100.00
64713;BME280;51140;45.340;5.980;2022-10-17T13:16:37;98487.19;;;21.90;100.00
64713;BME280;51140;45.340;5.980;2022-10-17T13:19:24;98487.06;;;21.92;100.00
64713;BME280;51140;45.340;5.980;2022-10-17T13:21:58;98473.38;;;21.97;100.00
64713;BME280;51140;45.340;5.980;2022-10-17T13:24:38;98447.53;;;21.99;100.00
64713;BME280;51140;45.340;5.980;2022-10-17T13:27:19;98458.97;;;21.99;100.00
64713;BME280;51140;45.340;5.980;2022-10-17T13:29:45;98450.31;;;21.97;100.00
64713;BME280;51140;45.340;5.980;2022-10-17T13:32:11;98464.28;;;21.99;100.00
64713;BME280;51140;45.340;5.980;2022-10-17T13:34:36;98451.59;;;22.03;100.00
64713;BME280;51140;45.340;5.980;2022-10-17T13:37:04;98452.47;;;22.03;100.00
64713;BME280;51140;45.340;5.980;2022-10-17T13:39:39;98456.91;;;22.03;100.00
64713;BME280;51140;45.340;5.980;2022-10-17T13:42:05;98465.84;;;22.02;100.00
64713;BME280;51140;45.340;5.980;2022-10-17T13:44:39;98442.69;;;22.04;100.00
64713;BME280;51140;45.340;5.980;2022-10-17T13:47:04;98454.13;;;22.04;100.00
64713;BME280;51140;45.340;5.980;2022-10-17T13:49:36;98452.31;;;22.05;100.00
64713;BME280;51140;45.340;5.980;2022-10-17T13:52:05;98449.38;;;22.08;100.00
64713;BME280;51140;45.340;5.980;2022-10-17T13:54:35;98445.69;;;22.18;100.00
64713;BME280;51140;45.340;5.980;2022-10-17T13:57:02;98431.69;;;22.26;100.00
64713;BME280;51140;45.340;5.980;2022-10-17T13:59:39;98426.78;;;22.31;100.00
64713;BME280;51140;45.340;5.980;2022-10-17T14:02:13;98438.13;;;22.24;100.00
64713;BME280;51140;45.340;5.980;2022-10-17T14:04:39;98449.88;;;22.21;100.00
64713;BME280;51140;45.340;5.980;2022-10-17T14:07:05;98454.47;;;22.29;100.00
64713;BME280;51140;45.340;5.980;2022-10-17T14:09:31;98455.53;;;22.36;100.00
64713;BME280;51140;45.340;5.980;2022-10-17T14:12:10;98450.22;;;22.36;100.00
64713;BME280;51140;45.340;5.980;2022-10-17T14:14:46;98460.31;;;22.32;100.00
64713;BME280;51140;45.340;5.980;2022-10-17T14:17:38;98467.88;;;22.27;100.00
64713;BME280;51140;45.340;5.980;2022-10-17T14:20:05;98478.63;;;22.26;100.00
64713;BME280;51140;45.340;5.980;2022-10-17T14:22:35;98446.09;;;22.24;100.00
64713;BME280;51140;45.340;5.980;2022-10-17T14:25:02;98432.53;;;22.27;100.00
64713;BME280;51140;45.340;5.980;2022-10-17T14:27:34;98446.78;;;22.26;100.00